Time;durP1;ratioP1;P1;durP2;ratioP2;P2;SDS_P1;SDS_P2;PMS_P1;PMS_P2;Temp;Humidity;BMP_temperature;BMP_pressure;BME280_temperature;BME280_humidity;BME280_pressure;Samples;Min_cycle;Max_cycle;Signal;HPM_P1;HPM_P2
2023/01/23 00:00:26;;;;;;;26.48;14.43;;;;;;;2.67;87.01;102829.72;6091881;23;20441;-68
2023/01/23 00:02:51;;;;;;;29.33;16.23;;;;;;;2.64;87.28;102840.66;6092756;23;20014;-68
2023/01/23 00:05:17;;;;;;;27.55;15.80;;;;;;;2.64;86.96;102838.09;6091748;23;20018;-67
2023/01/23 00:07:42;;;;;;;27.33;15.88;;;;;;;2.65;87.54;102836.44;6092748;23;20319;-68
2023/01/23 00:10:08;;;;;;;28.52;15.82;;;;;;;2.64;87.18;102832.09;6093311;23;20069;-67
2023/01/23 00:12:34;;;;;;;26.05;14.90;;;;;;;2.63;86.96;102832.94;6091978;23;20010;-67
2023/01/23 00:14:59;;;;;;;29.20;15.80;;;;;;;2.62;87.52;102832.03;6091288;23;20049;-68
2023/01/23 00:17:28;;;;;;;32.13;15.93;;;;;;;2.62;87.33;102836.25;6092104;23;20026;-68
2023/01/23 00:19:54;;;;;;;27.70;15.25;;;;;;;2.61;87.52;102832.81;6092572;23;20010;-68
2023/01/23 00:22:19;;;;;;;28.73;15.80;;;;;;;2.61;87.78;102837.03;6093221;23;20069;-68
2023/01/23 00:24:45;;;;;;;28.05;15.15;;;;;;;2.63;88.13;102835.47;6092277;23;20458;-67
2023/01/23 00:27:10;;;;;;;27.20;14.60;;;;;;;2.64;87.69;102834.66;6092693;23;20019;-68
2023/01/23 00:29:36;;;;;;;27.08;15.43;;;;;;;2.64;87.76;102835.53;6091099;23;20018;-68
2023/01/23 00:32:01;;;;;;;28.48;16.05;;;;;;;2.64;87.50;102838.09;6091433;23;20076;-68
2023/01/23 00:34:27;;;;;;;24.85;14.43;;;;;;;2.66;87.66;102830.53;6092590;23;20002;-68
2023/01/23 00:36:52;;;;;;;35.30;14.32;;;;;;;2.65;87.93;102832.22;6093440;23;20417;-68
2023/01/23 00:39:20;;;;;;;28.83;15.13;;;;;;;2.63;87.88;102833.81;6091445;23;20026;-68
2023/01/23 00:41:47;;;;;;;30.83;17.20;;;;;;;2.64;87.53;102834.66;6093693;23;20037;-68
2023/01/23 00:44:13;;;;;;;28.15;15.32;;;;;;;2.62;87.58;102832.03;6092662;23;20014;-68
2023/01/23 00:46:38;;;;;;;31.48;17.45;;;;;;;2.60;87.52;102842.97;6093531;23;20028;-68
2023/01/23 00:49:04;;;;;;;28.17;15.70;;;;;;;2.60;88.16;102842.97;6091265;23;20573;-67
2023/01/23 00:51:29;;;;;;;29.50;15.75;;;;;;;2.59;87.66;102836.97;6093198;23;20089;-67
2023/01/23 00:53:55;;;;;;;31.65;16.42;;;;;;;2.56;88.12;102835.91;6091937;23;20018;-68
2023/01/23 00:56:20;;;;;;;35.50;17.95;;;;;;;2.56;88.20;102846.13;6092797;23;20019;-68
2023/01/23 00:58:46;;;;;;;31.33;17.10;;;;;;;2.55;88.03;102849.50;6093239;23;20378;-68
2023/01/23 01:01:12;;;;;;;32.72;16.55;;;;;;;2.56;87.94;102856.34;6093378;23;20029;-68
2023/01/23 01:03:38;;;;;;;34.50;18.35;;;;;;;2.55;87.95;102854.59;6091640;23;20045;-68
2023/01/23 01:06:04;;;;;;;29.38;15.90;;;;;;;2.52;87.93;102857.81;6091873;23;20449;-68
2023/01/23 01:08:29;;;;;;;28.73;15.80;;;;;;;2.54;88.31;102863.03;6091305;23;20019;-68
2023/01/23 01:10:54;;;;;;;32.60;17.38;;;;;;;2.53;88.15;102861.25;6091634;23;20002;-68
2023/01/23 01:13:22;;;;;;;28.58;14.77;;;;;;;2.54;88.16;102866.47;6091706;23;20013;-68
2023/01/23 01:15:49;;;;;;;31.83;17.10;;;;;;;2.54;88.38;102868.13;6091246;23;20072;-67
2023/01/23 01:18:15;;;;;;;32.53;17.15;;;;;;;2.52;88.63;102864.63;6091754;23;20026;-67
2023/01/23 01:20:41;;;;;;;32.38;15.68;;;;;;;2.50;88.05;102864.53;6092007;23;20097;-67
2023/01/23 01:23:07;;;;;;;31.05;15.85;;;;;;;2.52;89.03;102862.06;6091968;23;20018;-68
2023/01/23 01:25:33;;;;;;;34.67;15.50;;;;;;;2.49;88.73;102865.31;6092168;23;19999;-68
2023/01/23 01:27:58;;;;;;;31.52;16.63;;;;;;;2.49;88.34;102869.56;6089913;23;20015;-67
2023/01/23 01:30:28;;;;;;;30.08;15.18;;;;;;;2.51;88.53;102865.41;6091020;23;20022;-67
2023/01/23 01:32:54;;;;;;;32.42;16.25;;;;;;;2.50;88.83;102871.28;6091074;23;20014;-68
2023/01/23 01:35:20;;;;;;;31.73;17.00;;;;;;;2.49;88.59;102867.84;6090483;23;20343;-68
2023/01/23 01:37:46;;;;;;;32.03;16.20;;;;;;;2.49;88.78;102875.50;6091717;23;20473;-67
2023/01/23 01:40:18;;;;;;;34.65;17.75;;;;;;;2.49;88.50;102872.97;6089928;23;20029;-67
2023/01/23 01:42:59;;;;;;;30.33;17.00;;;;;;;2.48;88.27;102876.31;6091631;23;20070;-68
2023/01/23 01:46:02;;;;;;;32.08;15.63;;;;;;;2.50;88.50;102872.19;6091250;23;20458;-68
2023/01/23 01:48:50;;;;;;;32.63;15.43;;;;;;;2.48;88.86;102876.31;6090799;23;20557;-67
2023/01/23 01:51:28;;;;;;;26.85;15.15;;;;;;;2.50;88.15;102872.19;6090367;23;20022;-68
2023/01/23 01:54:05;;;;;;;29.45;15.25;;;;;;;2.51;88.13;102885.81;6090604;23;20469;-68
2023/01/23 01:56:36;;;;;;;33.70;15.85;;;;;;;2.50;88.44;102877.28;6091813;23;20014;-68
2023/01/23 01:59:04;;;;;;;29.60;15.48;;;;;;;2.49;88.45;102870.41;6091244;23;20025;-69
2023/01/23 02:01:30;;;;;;;31.15;16.73;;;;;;;2.51;88.65;102879.06;6092272;23;20013;-68
2023/01/23 02:03:56;;;;;;;32.42;17.90;;;;;;;2.49;88.63;102877.22;6092513;23;20429;-68
2023/01/23 02:06:21;;;;;;;32.35;16.83;;;;;;;2.50;88.28;102890.03;6091989;23;20018;-68
2023/01/23 02:08:52;;;;;;;29.50;15.82;;;;;;;2.50;88.32;102887.50;6092926;23;20018;-68
2023/01/23 02:11:17;;;;;;;36.55;16.90;;;;;;;2.52;88.01;102888.44;6092616;23;20049;-68
2023/01/23 02:13:44;;;;;;;31.10;16.15;;;;;;;2.52;88.25;102882.50;6092852;23;20006;-68
2023/01/23 02:16:19;;;;;;;33.00;17.00;;;;;;;2.49;88.13;102885.72;6092176;23;20411;-68
2023/01/23 02:18:49;;;;;;;30.42;15.88;;;;;;;2.50;87.41;102887.50;6092051;23;20097;-68
2023/01/23 02:21:18;;;;;;;35.05;16.38;;;;;;;2.51;87.76;102888.38;6092050;23;20018;-68
2023/01/23 02:23:46;;;;;;;31.70;16.48;;;;;;;2.49;88.27;102885.72;6092937;23;20066;-67
2023/01/23 02:26:16;;;;;;;34.28;15.63;;;;;;;2.47;88.19;102881.31;6092584;23;20015;-68
2023/01/23 02:28:47;;;;;;;32.03;16.15;;;;;;;2.45;88.50;102876.16;6092162;23;20398;-68
2023/01/23 02:31:13;;;;;;;31.10;15.70;;;;;;;2.46;88.54;102877.88;6093546;23;20209;-68
2023/01/23 02:33:38;;;;;;;30.50;15.90;;;;;;;2.42;88.28;102887.06;6091639;23;20457;-68
2023/01/23 02:36:07;;;;;;;31.23;16.55;;;;;;;2.40;88.23;102880.97;6092483;23;20038;-68
2023/01/23 02:38:38;;;;;;;38.10;17.70;;;;;;;2.38;87.98;102885.13;6091837;23;20022;-68
2023/01/23 02:41:08;;;;;;;32.38;16.48;;;;;;;2.37;88.26;102888.44;6092072;23;20022;-68
2023/01/23 02:43:36;;;;;;;29.58;15.52;;;;;;;2.39;87.89;102892.00;6091725;23;20350;-67
2023/01/23 02:46:10;;;;;;;35.75;17.00;;;;;;;2.40;88.00;102892.84;6093096;23;20026;-68
2023/01/23 02:48:38;;;;;;;33.97;16.92;;;;;;;2.38;88.18;102890.22;6091439;23;20051;-67
2023/01/23 02:51:04;;;;;;;30.35;16.42;;;;;;;2.37;88.64;102891.00;6093575;23;20029;-68
2023/01/23 02:53:30;;;;;;;29.20;15.45;;;;;;;2.37;88.79;102895.22;6091748;23;20049;-67
2023/01/23 02:55:57;;;;;;;35.22;16.30;;;;;;;2.38;88.68;102891.88;6095255;23;20015;-68
2023/01/23 03:01:07;;;;;;;32.38;16.80;;;;;;;2.41;87.88;102892.06;6094099;23;20066;-68
2023/01/23 03:03:33;;;;;;;33.15;16.55;;;;;;;2.39;88.06;102899.66;6092266;23;20018;-68
2023/01/23 03:06:02;;;;;;;32.60;16.27;;;;;;;2.40;87.66;102896.28;6092379;23;20102;-68
2023/01/23 03:08:32;;;;;;;31.00;15.85;;;;;;;2.38;88.20;102897.00;6092294;23;20018;-67
2023/01/23 03:11:02;;;;;;;31.10;16.40;;;;;;;2.39;88.04;102891.09;6092608;23;20634;-68
2023/01/23 03:13:28;;;;;;;32.45;17.02;;;;;;;2.37;88.09;102901.19;6092236;23;20450;-68
2023/01/23 03:15:56;;;;;;;32.78;16.30;;;;;;;2.36;88.61;102899.47;6090227;23;20138;-68
2023/01/23 03:18:22;;;;;;;33.15;15.57;;;;;;;2.37;88.41;102902.88;6093070;23;20053;-67
2023/01/23 03:20:48;;;;;;;33.45;16.20;;;;;;;2.35;88.34;102896.81;6092685;23;20026;-68
2023/01/23 03:23:13;;;;;;;29.52;15.13;;;;;;;2.36;89.08;102906.22;6092143;23;20030;-68
2023/01/23 03:25:42;;;;;;;33.70;15.25;;;;;;;2.35;88.92;102907.91;6091138;23;20085;-68
2023/01/23 03:30:11;;;;;;;29.77;15.85;;;;;;;2.31;88.55;102907.66;6092037;23;20022;-67
2023/01/23 03:30:53;;;;;;;;;;;;;;;2.30;89.16;102911.88;6092384;23;20037;-67
2023/01/23 03:33:18;;;;;;;31.52;15.25;;;;;;;2.29;88.94;102907.53;6092570;23;19909;-68
2023/01/23 03:35:44;;;;;;;33.13;16.17;;;;;;;2.28;89.23;102910.88;6091444;23;20073;-67
2023/01/23 03:38:09;;;;;;;32.35;17.08;;;;;;;2.27;89.18;102906.56;6091596;23;20022;-67
2023/01/23 03:43:19;;;;;;;33.65;16.92;;;;;;;2.25;88.87;102903.03;6090549;23;20026;-68
2023/01/23 03:45:44;;;;;;;30.98;16.08;;;;;;;2.25;89.20;102909.84;6090219;23;20027;-67
2023/01/23 03:48:10;;;;;;;29.40;15.38;;;;;;;2.24;89.32;102903.84;6091775;23;20029;-67
2023/01/23 03:50:35;;;;;;;32.45;17.00;;;;;;;2.23;89.52;102913.94;6091112;23;20049;-67
2023/01/23 03:53:01;;;;;;;33.38;16.63;;;;;;;2.24;89.34;102911.50;6091833;23;20037;-68
2023/01/23 03:55:26;;;;;;;33.03;16.60;;;;;;;2.23;89.51;102911.38;6092152;23;20073;-68
2023/01/23 03:57:51;;;;;;;38.20;17.13;;;;;;;2.23;89.01;102912.28;6090998;23;20082;-68
2023/01/23 04:00:17;;;;;;;31.17;15.80;;;;;;;2.22;88.84;102907.94;6089886;23;20470;-68
2023/01/23 04:02:42;;;;;;;32.60;16.38;;;;;;;2.20;89.21;102912.09;6091537;23;20018;-68
2023/01/23 04:05:08;;;;;;;35.03;18.85;;;;;;;2.19;89.68;102907.78;6091513;23;20014;-68
2023/01/23 04:07:34;;;;;;;32.42;15.00;;;;;;;2.17;89.36;102914.47;6089536;23;20006;-68
2023/01/23 04:09:59;;;;;;;37.33;17.55;;;;;;;2.15;89.48;102904.97;6090437;23;20026;-67
2023/01/23 04:12:24;;;;;;;33.35;16.10;;;;;;;2.12;89.54;102905.66;6091335;23;20045;-68
2023/01/23 04:14:50;;;;;;;33.55;16.70;;;;;;;2.08;89.62;102910.47;6089192;23;20024;-68
2023/01/23 04:17:15;;;;;;;38.20;17.95;;;;;;;2.07;89.51;102912.16;6091293;23;20026;-68
2023/01/23 04:19:41;;;;;;;35.95;17.13;;;;;;;2.04;89.41;102906.88;6091883;23;20010;-68
2023/01/23 04:22:06;;;;;;;35.53;17.45;;;;;;;1.99;89.87;102910.81;6091677;23;20029;-68
2023/01/23 04:24:32;;;;;;;34.08;15.35;;;;;;;1.94;90.11;102909.66;6091609;23;20014;-68
2023/01/23 04:26:57;;;;;;;34.25;16.98;;;;;;;1.88;90.07;102908.41;6091069;23;20323;-67
2023/01/23 04:29:22;;;;;;;32.97;16.27;;;;;;;1.87;89.85;102899.88;6090461;23;20047;-68
2023/01/23 04:31:48;;;;;;;32.67;16.23;;;;;;;1.76;89.95;102909.44;6091121;23;20006;-68
2023/01/23 04:34:13;;;;;;;32.30;16.52;;;;;;;1.67;90.22;102902.88;6089982;23;20021;-68
2023/01/23 04:36:39;;;;;;;30.77;16.00;;;;;;;1.57;90.23;102903.06;6091405;23;20022;-68
2023/01/23 04:39:04;;;;;;;28.20;14.57;;;;;;;1.46;90.55;102892.25;6090717;23;20102;-68
2023/01/23 04:41:31;;;;;;;29.48;15.00;;;;;;;1.34;90.92;102893.13;6090415;23;20025;-68
2023/01/23 04:44:18;;;;;;;34.35;16.80;;;;;;;1.22;90.97;102889.03;6089796;23;20399;-68
2023/01/23 04:46:42;;;;;;;;;;;;;;;1.15;91.67;102894.50;6090919;23;20022;-68
2023/01/23 04:49:07;;;;;;;30.80;15.95;;;;;;;1.06;92.18;102901.56;6091145;23;19909;-68
2023/01/23 04:51:33;;;;;;;35.72;17.25;;;;;;;0.97;92.22;102905.22;6091297;23;20029;-68
2023/01/23 04:53:58;;;;;;;30.13;15.43;;;;;;;0.92;92.69;102902.38;6090051;23;20015;-68
2023/01/23 04:56:24;;;;;;;33.25;16.42;;;;;;;0.92;92.81;102907.44;6091513;23;20037;-68
2023/01/23 04:58:49;;;;;;;32.28;15.45;;;;;;;0.89;93.00;102899.63;6091115;23;20006;-68
2023/01/23 05:01:15;;;;;;;27.30;14.15;;;;;;;0.89;93.22;102903.81;6090097;23;20022;-68
2023/01/23 05:03:40;;;;;;;31.63;14.75;;;;;;;0.90;93.49;102903.06;6090380;23;20090;-68
2023/01/23 05:06:06;;;;;;;31.40;16.13;;;;;;;0.92;93.47;102901.47;6091848;23;20058;-72
2023/01/23 05:08:31;;;;;;;40.00;19.60;;;;;;;0.90;94.28;102903.94;6090565;23;20034;-71
2023/01/23 05:10:57;;;;;;;40.75;19.98;;;;;;;0.95;93.80;102904.22;6092729;23;20018;-72
2023/01/23 05:13:22;;;;;;;33.38;16.42;;;;;;;0.99;93.97;102913.81;6092485;23;20038;-72
2023/01/23 05:15:47;;;;;;;31.83;16.55;;;;;;;1.05;93.72;102922.75;6090091;23;20018;-71
2023/01/23 05:18:13;;;;;;;35.45;17.25;;;;;;;1.14;94.00;102927.53;6088915;23;20026;-71
2023/01/23 05:20:38;;;;;;;38.67;18.02;;;;;;;1.26;93.42;102930.88;6090624;23;20472;-72
2023/01/23 05:23:03;;;;;;;37.42;17.73;;;;;;;1.37;93.02;102922.25;6090008;23;20014;-71
2023/01/23 05:25:29;;;;;;;36.38;17.98;;;;;;;1.44;92.14;102926.94;6091425;23;20014;-72
2023/01/23 05:27:55;;;;;;;35.92;16.95;;;;;;;1.49;92.01;102930.66;6090308;23;20022;-72
2023/01/23 05:30:22;;;;;;;34.78;17.33;;;;;;;1.55;91.68;102933.59;6090402;23;20015;-71
2023/01/23 05:32:48;;;;;;;31.65;16.10;;;;;;;1.56;91.08;102927.72;6091625;23;20019;-71
2023/01/23 05:35:14;;;;;;;33.65;17.13;;;;;;;1.55;90.89;102925.94;6090255;23;20398;-71
2023/01/23 05:37:40;;;;;;;31.33;16.33;;;;;;;1.57;90.86;102932.00;6089123;23;20006;-72
2023/01/23 05:40:09;;;;;;;31.73;15.63;;;;;;;1.60;90.58;102931.31;6090092;23;20069;-72
2023/01/23 05:42:35;;;;;;;33.25;16.40;;;;;;;1.59;90.85;102929.56;6091030;23;20025;-71
2023/01/23 05:45:00;;;;;;;33.55;15.90;;;;;;;1.60;90.45;102933.84;6085744;23;20025;-71
2023/01/23 05:47:26;;;;;;;33.58;16.38;;;;;;;1.57;90.40;102929.44;6088159;23;20026;-71
2023/01/23 05:49:52;;;;;;;32.47;16.60;;;;;;;1.58;90.61;102932.88;6088190;23;20442;-72
2023/01/23 05:52:17;;;;;;;32.72;15.60;;;;;;;1.56;90.83;102937.03;6088255;23;20074;-71
2023/01/23 05:54:43;;;;;;;32.20;15.70;;;;;;;1.52;90.71;102933.38;6087978;23;20019;-71
2023/01/23 05:57:09;;;;;;;31.40;16.02;;;;;;;1.47;90.47;102934.78;6087337;23;20031;-71
2023/01/23 05:59:35;;;;;;;30.55;16.02;;;;;;;1.39;90.92;102933.41;6089150;23;20017;-71
2023/01/23 06:02:00;;;;;;;32.83;15.30;;;;;;;1.35;91.22;102939.09;6090228;23;20034;-71
2023/01/23 06:04:26;;;;;;;31.88;16.08;;;;;;;1.36;91.37;102938.28;6091030;23;20006;-71
2023/01/23 06:06:51;;;;;;;32.55;16.10;;;;;;;1.37;91.26;102940.06;6087100;23;20249;-71
2023/01/23 06:09:17;;;;;;;32.20;16.15;;;;;;;1.39;91.60;102935.94;6089064;23;20050;-71
2023/01/23 06:11:42;;;;;;;34.08;16.63;;;;;;;1.43;91.31;102950.66;6091124;23;20015;-71
2023/01/23 06:14:08;;;;;;;30.42;15.73;;;;;;;1.46;91.45;102949.97;6090084;23;20349;-71
2023/01/23 06:16:33;;;;;;;34.60;16.83;;;;;;;1.50;91.12;102947.72;6086860;23;20010;-71
2023/01/23 06:18:59;;;;;;;32.63;15.75;;;;;;;1.51;90.79;102954.56;6086405;23;20098;-71
2023/01/23 06:21:24;;;;;;;32.85;15.68;;;;;;;1.54;90.36;102944.56;6087616;23;20030;-71
2023/01/23 06:23:50;;;;;;;28.77;14.82;;;;;;;1.57;90.15;102951.50;6089197;23;20020;-71
2023/01/23 06:26:15;;;;;;;34.17;16.27;;;;;;;1.61;90.12;102956.91;6090613;23;20018;-72
2023/01/23 06:28:40;;;;;;;30.63;15.63;;;;;;;1.63;90.03;102962.09;6089186;23;20017;-71
2023/01/23 06:31:08;;;;;;;39.25;16.60;;;;;;;1.67;89.49;102967.47;6092712;23;20023;-73
2023/01/23 06:33:33;;;;;;;31.20;16.13;;;;;;;1.71;89.79;102969.44;6088485;23;20015;-73
2023/01/23 06:36:01;;;;;;;30.45;16.20;;;;;;;1.73;89.08;102972.09;6088186;23;20034;-72
2023/01/23 06:38:27;;;;;;;32.63;17.27;;;;;;;1.72;88.89;102970.31;6087527;23;20030;-72
2023/01/23 06:40:52;;;;;;;34.00;17.02;;;;;;;1.71;88.73;102979.66;6089346;23;20358;-73
2023/01/23 06:43:18;;;;;;;31.15;16.55;;;;;;;1.71;88.77;102983.84;6089190;23;20030;-73
2023/01/23 06:45:45;;;;;;;34.72;16.58;;;;;;;1.69;88.74;102993.06;6088920;23;20147;-73
2023/01/23 06:48:11;;;;;;;30.42;15.98;;;;;;;1.67;88.76;102990.44;6088674;23;20064;-73
2023/01/23 06:50:40;;;;;;;31.35;16.90;;;;;;;1.66;89.13;102991.19;6090397;23;20446;-73
2023/01/23 06:53:05;;;;;;;33.00;16.70;;;;;;;1.65;89.54;102994.56;6091690;23;20018;-73
2023/01/23 06:55:32;;;;;;;29.50;15.25;;;;;;;1.63;89.71;102998.66;6091349;23;20818;-73
2023/01/23 06:57:57;;;;;;;30.88;16.27;;;;;;;1.62;89.56;103002.00;6091419;23;20018;-73
2023/01/23 07:00:23;;;;;;;35.30;17.02;;;;;;;1.60;89.61;103015.41;6066112;23;20028;-73
2023/01/23 07:02:49;;;;;;;34.85;17.40;;;;;;;1.60;89.74;103012.88;6092684;23;20077;-73
2023/01/23 07:05:15;;;;;;;35.35;17.38;;;;;;;1.61;90.15;103012.09;6091680;23;20014;-73
2023/01/23 07:07:40;;;;;;;43.05;19.60;;;;;;;1.64;89.74;103019.94;6091745;23;20382;-73
2023/01/23 07:10:06;;;;;;;45.58;23.13;;;;;;;1.66;89.67;103020.91;6091910;23;20019;-72
2023/01/23 07:12:32;;;;;;;46.53;22.67;;;;;;;1.68;89.71;103027.88;6091849;23;20014;-72
2023/01/23 07:14:58;;;;;;;38.42;20.10;;;;;;;1.66;89.72;103034.53;6092217;23;20077;-72
2023/01/23 07:17:23;;;;;;;37.03;18.42;;;;;;;1.66;89.84;103037.09;6093932;23;20033;-71
2023/01/23 07:19:49;;;;;;;33.88;17.30;;;;;;;1.70;90.06;103045.81;6092446;23;20011;-73
2023/01/23 07:22:19;;;;;;;36.30;18.65;;;;;;;1.71;90.07;103042.50;6094270;23;20030;-72
2023/01/23 07:24:44;;;;;;;34.20;16.70;;;;;;;1.71;89.92;103038.28;6091517;23;20018;-72
2023/01/23 07:27:10;;;;;;;36.20;17.73;;;;;;;1.72;90.14;103052.78;6091122;23;20029;-72
2023/01/23 07:29:35;;;;;;;34.00;16.83;;;;;;;1.74;89.79;103042.69;6090129;23;20582;-72
2023/01/23 07:32:01;;;;;;;32.28;16.50;;;;;;;1.79;89.98;103047.28;6092548;23;20627;-72
2023/01/23 07:34:27;;;;;;;36.83;17.55;;;;;;;1.82;90.16;103049.16;6092936;23;19998;-72
2023/01/23 07:36:52;;;;;;;30.40;15.63;;;;;;;1.85;89.86;103047.69;6092075;23;20346;-73
2023/01/23 07:39:17;;;;;;;30.33;15.07;;;;;;;1.88;89.79;103038.44;6092338;23;20030;-74
2023/01/23 07:41:43;;;;;;;28.88;15.57;;;;;;;1.89;89.15;103050.41;6088324;23;20097;-73
2023/01/23 07:44:16;;;;;;;29.00;15.73;;;;;;;1.87;89.18;103042.66;6090965;23;20018;-74
2023/01/23 07:46:42;;;;;;;27.38;14.98;;;;;;;1.91;89.14;103039.53;6092951;23;20002;-73
2023/01/23 07:49:07;;;;;;;26.58;14.27;;;;;;;1.96;89.02;103048.34;6090876;23;20029;-74
2023/01/23 07:51:33;;;;;;;30.63;14.90;;;;;;;2.00;89.43;103046.88;6090220;23;20042;-73
2023/01/23 07:53:59;;;;;;;26.58;14.38;;;;;;;2.01;88.41;103041.88;6090284;23;20031;-74
2023/01/23 07:56:24;;;;;;;29.42;15.50;;;;;;;2.03;88.37;103052.16;6089546;23;20022;-74
2023/01/23 07:58:50;;;;;;;28.73;14.75;;;;;;;2.05;88.54;103043.81;6089040;23;20010;-74
2023/01/23 08:01:15;;;;;;;28.92;15.15;;;;;;;2.09;88.60;103035.56;6090474;23;20026;-72
2023/01/23 08:03:41;;;;;;;28.50;14.23;;;;;;;2.14;87.76;103039.28;6089243;23;20046;-74
2023/01/23 08:06:07;;;;;;;28.42;14.40;;;;;;;2.19;87.84;103045.53;6090569;23;20025;-72
2023/01/23 08:08:32;;;;;;;27.25;14.95;;;;;;;2.24;87.96;103049.28;6089490;23;20019;-72
2023/01/23 08:10:58;;;;;;;27.38;14.43;;;;;;;2.28;87.85;103052.91;6088474;23;20073;-72
2023/01/23 08:13:23;;;;;;;30.08;14.43;;;;;;;2.30;87.41;103056.41;6086058;23;20014;-71
2023/01/23 08:15:49;;;;;;;28.83;14.50;;;;;;;2.29;87.46;103054.66;6084754;23;20358;-72
2023/01/23 08:18:14;;;;;;;29.02;15.07;;;;;;;2.32;86.94;103049.72;6089957;23;20027;-71
2023/01/23 08:20:40;;;;;;;30.42;15.38;;;;;;;2.36;86.73;103055.13;6089705;23;20025;-71
2023/01/23 08:23:05;;;;;;;27.20;14.38;;;;;;;2.41;87.34;103056.28;6091172;23;20014;-72
2023/01/23 08:25:31;;;;;;;27.17;15.07;;;;;;;2.46;86.57;103060.78;6089958;23;20002;-71
2023/01/23 08:27:56;;;;;;;33.42;16.23;;;;;;;2.45;86.58;103054.81;6088163;23;20073;-72
2023/01/23 08:30:21;;;;;;;29.30;15.30;;;;;;;2.46;86.48;103063.34;6090998;23;20452;-72
2023/01/23 08:32:47;;;;;;;29.05;16.00;;;;;;;2.51;86.55;103067.06;6089937;23;20014;-72
2023/01/23 08:35:12;;;;;;;32.53;16.33;;;;;;;2.52;86.80;103059.47;6090111;23;20019;-72
2023/01/23 08:37:39;;;;;;;28.42;14.98;;;;;;;2.53;86.64;103066.34;6091488;23;20090;-73
2023/01/23 08:40:06;;;;;;;28.88;15.73;;;;;;;2.55;86.40;103064.75;6089829;23;20324;-72
2023/01/23 08:42:31;;;;;;;27.45;16.10;;;;;;;2.60;86.18;103070.16;6090223;23;20109;-72
2023/01/23 08:44:56;;;;;;;26.30;14.05;;;;;;;2.62;86.75;103077.13;6089237;23;20101;-72
2023/01/23 08:47:22;;;;;;;28.00;14.40;;;;;;;2.62;86.23;103072.03;6091583;23;20030;-72
2023/01/23 08:49:48;;;;;;;31.38;15.07;;;;;;;2.64;86.54;103074.66;6092711;23;20083;-73
2023/01/23 08:52:13;;;;;;;26.67;14.70;;;;;;;2.66;85.93;103073.97;6091966;23;20018;-72
2023/01/23 08:54:39;;;;;;;30.40;14.77;;;;;;;2.69;85.81;103081.81;6089750;23;20022;-72
2023/01/23 08:57:05;;;;;;;24.15;12.43;;;;;;;2.74;86.12;103082.09;6091534;23;20022;-72
2023/01/23 08:59:30;;;;;;;28.88;13.43;;;;;;;2.77;86.01;103084.81;6091093;23;20093;-71
2023/01/23 09:01:55;;;;;;;25.13;14.40;;;;;;;2.81;85.36;103084.22;6091099;23;20010;-72
2023/01/23 09:04:21;;;;;;;26.38;13.68;;;;;;;2.83;85.43;103080.97;6091943;23;19998;-71
2023/01/23 09:06:46;;;;;;;22.67;12.55;;;;;;;2.86;85.40;103076.03;6091912;23;20024;-72
2023/01/23 09:09:12;;;;;;;23.95;13.23;;;;;;;2.89;84.69;103088.09;6090720;23;20029;-72
2023/01/23 09:11:37;;;;;;;26.10;13.48;;;;;;;2.91;84.51;103077.19;6091021;23;20014;-72
2023/01/23 09:14:02;;;;;;;25.55;13.85;;;;;;;2.95;85.19;103085.91;6091447;23;20014;-72
2023/01/23 09:16:28;;;;;;;23.33;12.40;;;;;;;2.96;85.19;103075.78;6092021;23;20014;-72
2023/01/23 09:18:54;;;;;;;25.15;12.52;;;;;;;3.00;84.69;103071.72;6092975;23;20069;-72
2023/01/23 09:21:19;;;;;;;21.27;12.15;;;;;;;3.06;84.04;103077.22;6092444;23;20022;-72
2023/01/23 09:23:45;;;;;;;25.92;12.88;;;;;;;3.11;83.78;103073.25;6092057;23;20399;-73
2023/01/23 09:26:13;;;;;;;23.15;13.25;;;;;;;3.20;84.23;103075.47;6093373;23;20093;-71
2023/01/23 09:28:41;;;;;;;24.75;12.73;;;;;;;3.25;83.62;103074.94;6093100;23;20011;-72
2023/01/23 09:31:09;;;;;;;23.65;12.82;;;;;;;3.24;83.78;103078.28;6091783;23;20025;-72
2023/01/23 09:33:35;;;;;;;26.05;13.20;;;;;;;3.27;83.51;103082.69;6090299;23;20033;-72
2023/01/23 09:36:01;;;;;;;26.30;13.93;;;;;;;3.28;84.43;103084.47;6091188;23;20010;-72
2023/01/23 09:38:27;;;;;;;22.17;13.05;;;;;;;3.33;83.31;103081.38;6092717;23;20018;-72
2023/01/23 09:40:56;;;;;;;27.15;13.85;;;;;;;3.37;83.82;103078.22;6094807;23;20026;-72
2023/01/23 09:43:40;;;;;;;23.33;13.07;;;;;;;3.38;83.50;103079.06;6095487;23;20003;-72
2023/01/23 09:46:22;;;;;;;26.37;12.87;;;;;;;3.43;83.32;103093.91;6094066;23;20034;-71
2023/01/23 09:48:47;;;;;;;21.42;12.82;;;;;;;3.46;83.33;103101.75;6092377;23;20320;-71
2023/01/23 09:51:29;;;;;;;22.48;13.40;;;;;;;3.46;83.31;103094.06;6092414;23;20049;-72
2023/01/23 09:53:59;;;;;;;21.23;11.77;;;;;;;3.51;83.50;103090.09;6092244;23;20093;-72
2023/01/23 09:56:37;;;;;;;23.65;12.52;;;;;;;3.52;83.25;103101.22;6092785;23;20018;-71
2023/01/23 09:59:20;;;;;;;23.00;12.38;;;;;;;3.61;81.99;103094.06;6092500;23;20013;-72
2023/01/23 10:01:46;;;;;;;22.70;12.48;;;;;;;3.68;82.32;103100.38;6092950;23;20002;-72
2023/01/23 10:04:17;;;;;;;26.42;13.02;;;;;;;3.73;81.40;103094.75;6090466;23;20401;-72
2023/01/23 10:07:03;;;;;;;23.60;12.48;;;;;;;3.79;81.84;103095.09;6091014;23;20018;-72
2023/01/23 10:09:44;;;;;;;20.67;12.52;;;;;;;3.80;80.90;103094.28;6091235;23;20442;-72
2023/01/23 10:12:16;;;;;;;19.60;11.73;;;;;;;3.83;81.11;103089.34;6091842;23;20018;-72
2023/01/23 10:15:04;;;;;;;25.42;12.88;;;;;;;3.90;79.56;103093.13;6090991;23;20023;-72
2023/01/23 10:17:43;;;;;;;21.15;12.05;;;;;;;3.96;79.36;103096.03;6090520;23;20014;-72
2023/01/23 10:20:32;;;;;;;22.35;11.38;;;;;;;4.00;79.91;103098.84;6092173;23;20060;-72
2023/01/23 10:23:29;;;;;;;22.42;11.88;;;;;;;3.95;79.84;103107.94;6092172;23;20013;-72
2023/01/23 10:25:55;;;;;;;23.83;12.85;;;;;;;3.94;79.90;103103.59;6092749;23;19994;-72
2023/01/23 10:28:41;;;;;;;20.08;11.63;;;;;;;4.00;80.16;103103.94;6093127;23;20006;-72
2023/01/23 10:31:14;;;;;;;23.05;12.20;;;;;;;4.07;79.53;103097.50;6093043;23;20022;-71
2023/01/23 10:33:53;;;;;;;22.23;11.15;;;;;;;4.09;79.16;103098.50;6093452;23;20077;-72
2023/01/23 10:36:31;;;;;;;20.30;11.30;;;;;;;4.16;79.56;103097.13;6093081;23;20037;-72
2023/01/23 10:39:21;;;;;;;21.13;11.40;;;;;;;4.27;78.72;103096.06;6092531;23;20691;-72
2023/01/23 10:41:46;;;;;;;19.70;10.88;;;;;;;4.31;78.28;103088.59;6093604;23;20018;-71
2023/01/23 10:44:17;;;;;;;17.35;10.48;;;;;;;4.33;77.96;103091.25;6092650;23;20018;-72
2023/01/23 10:46:48;;;;;;;18.60;10.45;;;;;;;4.31;77.08;103080.91;6093765;23;20086;-71
2023/01/23 10:49:40;;;;;;;19.70;11.27;;;;;;;4.32;77.38;103082.69;6090581;23;20018;-72
2023/01/23 10:52:32;;;;;;;16.90;9.80;;;;;;;4.35;76.88;103079.41;6093149;23;20418;-71
2023/01/23 10:54:59;;;;;;;17.70;9.90;;;;;;;4.36;76.05;103070.94;6093034;23;20019;-70
2023/01/23 10:57:27;;;;;;;17.55;10.05;;;;;;;4.41;77.57;103084.88;6093926;23;20018;-72
2023/01/23 11:00:07;;;;;;;19.27;10.93;;;;;;;4.42;77.70;103084.94;6093066;23;20021;-72
2023/01/23 11:02:35;;;;;;;19.48;10.95;;;;;;;4.43;77.22;103084.13;6095026;23;20484;-71
2023/01/23 11:05:22;;;;;;;17.08;9.88;;;;;;;4.47;77.38;103080.97;6094152;23;20002;-71
2023/01/23 11:07:53;;;;;;;14.07;8.55;;;;;;;4.45;74.76;103058.59;6093083;23;20005;-71
2023/01/23 11:10:21;;;;;;;15.30;8.68;;;;;;;4.57;75.65;103067.81;6092373;23;20022;-72
2023/01/23 11:12:50;;;;;;;14.55;8.85;;;;;;;4.54;75.59;103067.66;6093022;23;20029;-71
2023/01/23 11:15:26;;;;;;;16.48;10.40;;;;;;;4.55;75.78;103074.56;6092177;23;20031;-71
2023/01/23 11:17:54;;;;;;;14.80;9.23;;;;;;;4.60;75.52;103061.97;6093716;23;20014;-72
2023/01/23 11:20:33;;;;;;;13.50;8.95;;;;;;;4.61;75.12;103059.50;6091953;23;20021;-72
2023/01/23 11:23:12;;;;;;;16.45;10.18;;;;;;;4.62;74.85;103047.59;6092831;23;20347;-72
2023/01/23 11:25:41;;;;;;;13.93;8.27;;;;;;;4.69;74.14;103044.53;6093476;23;20006;-71